AirNav   Air Wisconsin Up To $57,000 Bonus
 
 1336 users online  

CO24 Penrose Hospital Heliport
Colorado Springs, Colorado, USA

GOING TO COLORADO SPRINGS?


FAA INFORMATION EFFECTIVE 06 OCTOBER 2022

Location

FAA Identifier: CO24
Lat/Long: 38-51-57.5900N 104-49-19.9900W
38-51.959833N 104-49.333167W
38.8659972,-104.8222194
(estimated)
Elevation: 6143 ft. / 1872 m (estimated)
Variation: 11E (1985)
From city: 1 mile N of COLORADO SPRINGS, CO
(ALSO LCTD 5 NM NW OF PETERSON FIELD.)
Time zone: UTC -6 (UTC -7 during Standard Time)
Zip code: 80907

Heliport Operations

Heliport use: Private use, MEDICAL USE.
Activation date: 09/1974
Control tower: no
ARTCC: DENVER CENTER
FSS: DENVER FLIGHT SERVICE STATION
Attendance: CONTINUOUS
Wind indicator: yes
Segmented circle: no
Lights: SS-SR
Beacon: white-green-yellow (heliport)
Operates sunset to sunrise.

Heliport Communications

WX ASOS at COS (7 nm SE): 125 (719-380-6748)
WX AWOS-3 at FCS (12 nm S): 125.0 (719-637-9696)
WX AWOS-3PT at FLY (13 nm E): 118.450 (719-683-5371)

Nearby radio navigation aids

VOR radial/distance  VOR name  Freq  Var
BRKr234/10.0BLACK FOREST VOR/DME112.5008E
FCSr333/11.5BUTTS VOR/DME108.8012E
PUBr324/38.9PUEBLO VORTAC116.7008E

 
NDB name  Hdg/Dist  Freq  Var  ID
PETEY326/11.440708ECO -.-. ---
IRONHORSE336/11.733508EIHS .. .... ...

Heliport Services

Airframe service: NONE
Powerplant service: NONE

Runway Information

Helipad H1

Dimensions: 84 x 40 ft. / 26 x 12 m
Surface: concrete
Runway edge lights: FLD
SPOT LGT.
Latitude: 38-51.959833N
Longitude: 104-49.333167W
Elevation: 6132.0 ft.
Traffic pattern: leftleft

Heliport Ownership and Management from official FAA records

Ownership: Privately-owned
Owner: PENROSE HOSPITAL
PO BOX 7021
COLORADO SPRINGS, CO 80933
Phone 719-571-8954
Manager: RICK MCGUFFIN
6083 EAST WOODMEN ROAD
COLORADO SPRINGS, CO 80923
Phone 719-571-8954

Additional Remarks

A52-H1 LGTD PWR-HOUSE SMOKESTACK 152' N, LGTD HOSP BLDG W.
FREQ 123.05.
FOR CD CTC COLORADO SPRINGS APCH AT 719-556-9105.

Instrument Procedures

There are no published instrument procedures at CO24.

Some nearby airports with instrument procedures:

KCOS - City of Colorado Springs Municipal Airport (7 nm SE)
1V6 - Fremont County Airport (29 nm SW)
KPUB - Pueblo Memorial Airport (38 nm SE)
KAPA - Centennial Airport (42 nm N)
KBKF - Buckley Space Force Base (50 nm N)
 
Loc | Ops | Rwys | IFR | FBO | Links
Com | Nav | Svcs | Stats | Notes

AirBoss

 
Area around CO24 (Penrose Hospital Heliport)
 
Road maps at: MapQuest Bing Google
 
Aerial photo
No photo
 
Sectional chart

 
Airport distance calculator
Flying to Penrose Hospital Heliport? Find the distance to fly.

From to CO24

Sunrise and sunset
Times for 06-Oct-2022
 Local
(UTC-6)
 Zulu
(UTC)
Morning civil twilight06:3412:34
Sunrise07:0113:01
Sunset18:3400:34
Evening civil twilight19:0001:00

Current date and time
Zulu (UTC)  06-Oct-2022 13:12:36
Local (UTC-6)  06-Oct-2022 07:12:36
 
METAR
KCOS 
6nm SE 
061254Z 01007KT 10SM FEW065 FEW160 06/01 A3041 RMK AO2 SLP268 T00560011
KAFF 
6nm N 
061255Z AUTO 01009KT 10SM CLR 03/02 A3040 RMK AO2 SLP265 T00300021
KFCS 
12nm S 
061255Z AUTO 34010KT 10SM CLR 07/03 A3037 RMK AO2 SLP274 T00690033 $
KFLY 
13nm E 
061255Z AUTO 33004KT 10SM CLR 04/01 A3044 RMK AO2 T00380008
TAF
KCOS 
6nm SE 
061121Z 0612/0712 01006KT P6SM SKC FM061600 16008KT P6SM SKC FM062100 15012KT P6SM FEW080 SCT200 FM070400 10005KT P6SM SCT250 FM070800 07005KT P6SM SCT250
KAFF 
6nm N 
061106Z 0611/0717 35006KT 9999 FEW050 FEW100 QNH3034INS WND 15011KT AFT 0616 BECMG 0708/0709 03015G20KT 9999 FEW015 SCT030 510004 QNH3042INS BECMG 0712/0713 13012KT 9999 VCSH OVC005 QNH3046INS TX19/0621Z TN01/0612Z
KFCS 
12nm S 
060500Z 0605/0711 33005KT 9999 SCT050 BKN070 QNH3036INS BECMG 0612/0613 33005KT 9999 SCT120 SCT200 QNH3034INS BECMG 0617/0618 16010G20KT 9999 FEW200 QNH3033INS BECMG 0705/0706 33005KT 9999 SCT050 QNH3043INS TX19/0621Z TN07/0613Z
NOTAMs
Click for the latest NOTAMs
NOTAMs are issued by the DoD/FAA and will open in a separate window not controlled by AirNav.

 

 
 

Would you like to see your business listed on this page?

 If your business provides an interesting product or service to pilots, flight crews, aircraft, or users of the Penrose Hospital Heliport, you should consider listing it here.  To start the listing process, click on the button below
 
Add a business
 

Other Pages about Penrose Hospital Heliport

Update a link
 
Copyright © AirNav, LLC. All rights reserved. Privacy Policy  Contact